Terminal Aerodrome Forecast
Issued by NWS Atlanta, GA

Home | Current Version | Previous Version | Text Only | Print | Product List | Glossary On
Versions: 1 2 3 4 5 6 7 8 9 10 11 12 13 14 15 16 17 18 19 20 21 22 23 24 25 26 27 28 29 30 31 32 33 34 35 36 37 38 39 40 41 42
000
FTAK31 PAJN 251808 AAA
TAFAHN
TAF AMD
PAHN 251808Z 2518/2618 11004KT 3SM BR VCSH OVC006
      TEMPO 2518/2521 2SM -DZ BR OVC003
     FM252100 11012KT 3SM -RA BR SCT006 OVC015
     FM261500 VRB04KT 2SM -SHRA BKN007 OVC015
      AMD LTD TO CLD VIS AND WIND=

USA.gov is the U.S. government's official web portal to all federal, state and local government web resources and services.